createdAt,value
2019-05-13T00:00:03.743Z,52.00
2019-05-13T00:01:07.157Z,52.40
2019-05-13T00:02:07.824Z,52.40
2019-05-13T00:03:08.892Z,51.80
2019-05-13T00:04:09.892Z,51.50
2019-05-13T00:05:11.213Z,51.60
2019-05-13T00:06:13.426Z,52.30
2019-05-13T00:07:14.632Z,52.50
2019-05-13T00:08:15.636Z,53.10
2019-05-13T00:09:16.648Z,53.40
2019-05-13T00:10:17.660Z,53.40
2019-05-13T00:11:18.671Z,53.10
2019-05-13T00:12:19.688Z,52.80
2019-05-13T00:13:20.702Z,52.40
2019-05-13T00:14:23.811Z,52.80
2019-05-13T00:15:24.620Z,52.30
2019-05-13T00:16:25.633Z,51.90
2019-05-13T00:17:26.656Z,52.00
2019-05-13T00:18:27.660Z,52.20
2019-05-13T00:19:28.684Z,52.00
2019-05-13T00:20:29.785Z,52.10
2019-05-13T00:21:30.894Z,52.20
2019-05-13T00:22:33.885Z,52.30
2019-05-13T00:23:34.831Z,52.60
2019-05-13T00:24:35.842Z,52.70
2019-05-13T00:25:36.856Z,53.00
2019-05-13T00:26:37.880Z,53.50
2019-05-13T00:27:38.902Z,53.70
2019-05-13T00:28:39.913Z,54.10
2019-05-13T00:29:40.924Z,53.80
2019-05-13T00:30:44.270Z,54.00
2019-05-13T00:31:44.849Z,53.90
2019-05-13T00:32:45.869Z,54.00
2019-05-13T00:33:46.888Z,54.20
2019-05-13T00:34:47.891Z,54.20
2019-05-13T00:35:49.136Z,54.40
2019-05-13T00:37:06.884Z,54.10
2019-05-13T00:37:54.291Z,53.50
2019-05-13T00:38:55.415Z,53.10
2019-05-13T00:39:56.427Z,53.00
2019-05-13T00:40:57.427Z,52.90
2019-05-13T00:41:58.449Z,53.70
2019-05-13T00:42:59.464Z,53.40
2019-05-13T00:44:00.886Z,53.80
2019-05-13T00:45:04.126Z,54.20
2019-05-13T00:46:05.295Z,54.20
2019-05-13T00:47:06.299Z,54.50
2019-05-13T00:48:07.319Z,53.20
2019-05-13T00:49:08.352Z,52.90
2019-05-13T00:50:09.856Z,53.70
2019-05-13T00:51:10.867Z,53.70
2019-05-13T00:52:14.121Z,53.60
2019-05-13T00:53:14.800Z,53.70
2019-05-13T00:54:15.812Z,53.80
2019-05-13T00:55:16.828Z,53.50
2019-05-13T00:56:17.832Z,53.40
2019-05-13T00:57:18.865Z,53.40
2019-05-13T00:58:19.983Z,53.70
2019-05-13T00:59:20.989Z,54.10
2019-05-13T01:00:24.159Z,53.80
2019-05-13T01:01:25.012Z,53.60
2019-05-13T01:02:26.052Z,54.10
2019-05-13T01:03:28.416Z,54.50
2019-05-13T01:04:29.569Z,54.10
2019-05-13T01:05:30.815Z,54.20
2019-05-13T01:06:33.933Z,54.40
2019-05-13T01:07:34.744Z,53.70
2019-05-13T01:08:35.759Z,53.00
2019-05-13T01:09:36.767Z,54.20
2019-05-13T01:10:37.788Z,53.70
2019-05-13T01:11:38.792Z,53.00
2019-05-13T01:12:39.822Z,54.20
2019-05-13T01:13:43.200Z,54.20
2019-05-13T01:14:43.737Z,54.10
2019-05-13T01:15:44.749Z,54.20
2019-05-13T01:16:45.760Z,55.00
2019-05-13T01:17:46.788Z,54.20
2019-05-13T01:18:47.811Z,54.20
2019-05-13T01:19:49.023Z,54.20
2019-05-13T01:20:50.032Z,54.20
2019-05-13T01:21:51.037Z,54.20
2019-05-13T01:22:53.985Z,54.50
2019-05-13T01:23:54.968Z,54.20
2019-05-13T01:24:55.984Z,54.20
2019-05-13T01:25:57.218Z,54.20
2019-05-13T01:26:58.245Z,53.80
2019-05-13T01:27:59.259Z,53.80
2019-05-13T01:29:00.463Z,54.00
2019-05-13T01:30:04.122Z,54.20
2019-05-13T01:31:05.396Z,54.10
2019-05-13T01:32:06.409Z,54.00
2019-05-13T01:33:07.424Z,54.10
2019-05-13T01:34:08.423Z,54.10
2019-05-13T01:35:10.249Z,54.20
2019-05-13T01:36:13.231Z,54.10
2019-05-13T01:37:14.185Z,54.10
2019-05-13T01:38:15.529Z,54.20
2019-05-13T01:39:16.536Z,54.10
2019-05-13T01:40:17.548Z,54.50
2019-05-13T01:41:18.560Z,54.60
2019-05-13T01:42:19.565Z,54.70
2019-05-13T01:43:20.589Z,54.70
2019-05-13T01:44:21.597Z,55.50
2019-05-13T01:45:24.076Z,55.50
2019-05-13T01:46:25.317Z,55.10
2019-05-13T01:47:26.324Z,55.30
2019-05-13T01:48:27.341Z,54.90
2019-05-13T01:49:28.355Z,54.80
2019-05-13T01:50:29.355Z,54.80
2019-05-13T01:51:30.364Z,54.70
2019-05-13T01:52:31.369Z,54.80
2019-05-13T01:53:33.617Z,55.20
2019-05-13T01:54:34.940Z,54.80
2019-05-13T01:55:35.952Z,54.80
2019-05-13T01:56:36.972Z,54.80
2019-05-13T01:57:37.984Z,54.80
2019-05-13T01:58:39.008Z,55.20
2019-05-13T01:59:40.048Z,55.40
2019-05-13T02:00:44.021Z,55.60
2019-05-13T02:01:44.347Z,55.80
2019-05-13T02:02:45.471Z,55.50
2019-05-13T02:03:46.490Z,55.60
2019-05-13T02:04:47.499Z,55.80
2019-05-13T02:05:48.509Z,55.50
2019-05-13T02:06:49.511Z,56.30
2019-05-13T02:07:57.706Z,55.70
2019-05-13T02:08:54.482Z,55.80
2019-05-13T02:09:55.889Z,55.70
2019-05-13T02:10:57.563Z,56.50
2019-05-13T02:11:58.630Z,55.80
2019-05-13T02:12:59.644Z,56.00
2019-05-13T02:14:00.873Z,56.10
2019-05-13T02:15:04.373Z,55.80
2019-05-13T02:16:05.596Z,56.00
2019-05-13T02:17:06.716Z,56.10
2019-05-13T02:18:07.728Z,56.10
2019-05-13T02:19:08.753Z,56.00
2019-05-13T02:20:09.960Z,55.90
2019-05-13T02:21:10.982Z,55.80
2019-05-13T02:22:14.401Z,55.50
2019-05-13T02:23:15.229Z,55.60
2019-05-13T02:24:16.547Z,56.20
2019-05-13T02:25:17.563Z,56.20
2019-05-13T02:26:18.568Z,56.10
2019-05-13T02:27:19.592Z,56.50
2019-05-13T02:28:20.599Z,56.20
2019-05-13T02:29:21.625Z,56.00
2019-05-13T02:30:22.637Z,56.20
2019-05-13T02:31:39.114Z,56.10
2019-05-13T02:32:26.557Z,56.70
2019-05-13T02:33:27.563Z,56.00
2019-05-13T02:34:31.896Z,56.00
2019-05-13T02:35:32.472Z,55.80
2019-05-13T02:36:33.824Z,55.80
2019-05-13T02:37:34.850Z,56.40
2019-05-13T02:38:36.045Z,56.20
2019-05-13T02:39:37.424Z,55.80
2019-05-13T02:40:38.542Z,56.50
2019-05-13T02:41:42.898Z,55.80
2019-05-13T02:42:43.603Z,56.30
2019-05-13T02:43:45.611Z,55.90
2019-05-13T02:44:46.816Z,55.90
2019-05-13T02:45:47.823Z,56.40
2019-05-13T02:46:48.837Z,56.50
2019-05-13T02:47:52.123Z,56.70
2019-05-13T02:48:52.983Z,56.20
2019-05-13T02:49:54.069Z,56.40
2019-05-13T02:50:55.381Z,56.70
2019-05-13T02:51:56.386Z,57.00
2019-05-13T02:52:57.401Z,57.00
2019-05-13T02:53:58.729Z,56.80
2019-05-13T02:55:03.610Z,57.10
2019-05-13T02:56:03.302Z,57.20
2019-05-13T02:57:04.629Z,57.40
2019-05-13T02:58:05.680Z,56.70
2019-05-13T02:59:06.713Z,56.30
2019-05-13T03:00:08.322Z,57.20
2019-05-13T03:01:12.416Z,57.10
2019-05-13T03:02:12.687Z,56.90
2019-05-13T03:03:13.874Z,57.10
2019-05-13T03:04:14.875Z,56.40
2019-05-13T03:05:16.109Z,56.30
2019-05-13T03:06:17.116Z,56.20
2019-05-13T03:07:18.145Z,56.70
2019-05-13T03:08:38.633Z,56.60
2019-05-13T03:09:22.903Z,56.60
2019-05-13T03:10:24.288Z,56.80
2019-05-13T03:11:25.301Z,56.80
2019-05-13T03:12:26.312Z,57.10
2019-05-13T03:13:27.318Z,57.20
2019-05-13T03:14:28.329Z,57.00
2019-05-13T03:15:32.747Z,57.20
2019-05-13T03:16:36.202Z,57.00
2019-05-13T03:17:43.240Z,57.30
2019-05-13T03:18:44.565Z,57.50
2019-05-13T03:19:45.573Z,58.40
2019-05-13T03:20:46.600Z,58.60
2019-05-13T03:21:47.621Z,57.50
2019-05-13T03:22:52.253Z,58.40
2019-05-13T03:23:52.569Z,57.50
2019-05-13T03:24:53.855Z,57.50
2019-05-13T03:25:54.880Z,58.40
2019-05-13T03:26:55.891Z,58.40
2019-05-13T03:27:56.891Z,57.50
2019-05-13T03:28:57.917Z,57.50
2019-05-13T03:30:03.811Z,57.50
2019-05-13T03:31:06.586Z,57.50
2019-05-13T03:32:06.853Z,57.50
2019-05-13T03:33:10.744Z,57.60
2019-05-13T03:34:15.548Z,58.40
2019-05-13T03:35:16.486Z,58.40
2019-05-13T03:36:17.882Z,59.00
2019-05-13T03:37:25.513Z,59.00
2019-05-13T03:38:23.191Z,58.90
2019-05-13T03:39:26.098Z,59.00
2019-05-13T03:40:27.718Z,58.80
2019-05-13T03:41:32.927Z,59.10
2019-05-13T03:42:34.880Z,59.20
2019-05-13T03:43:37.845Z,59.10
2019-05-13T03:44:42.719Z,59.10
2019-05-13T03:45:44.688Z,59.00
2019-05-13T03:46:47.705Z,59.20
2019-05-13T03:47:48.926Z,59.40
2019-05-13T03:48:52.926Z,59.40
2019-05-13T03:49:57.268Z,59.40
2019-05-13T03:50:58.489Z,59.40
2019-05-13T03:52:02.615Z,59.10
2019-05-13T03:53:03.242Z,59.10
2019-05-13T03:54:05.826Z,59.30
2019-05-13T03:55:07.131Z,59.10
2019-05-13T03:56:08.257Z,59.20
2019-05-13T03:57:12.401Z,59.50
2019-05-13T03:58:13.053Z,59.70
2019-05-13T03:59:14.392Z,59.70
2019-05-13T04:00:15.814Z,59.40
2019-05-13T04:01:16.822Z,59.30
2019-05-13T04:02:17.930Z,59.40
2019-05-13T04:03:18.945Z,59.20
2019-05-13T04:04:23.226Z,59.10
2019-05-13T04:05:23.621Z,58.90
2019-05-13T04:06:24.888Z,59.10
2019-05-13T04:07:25.903Z,58.90
2019-05-13T04:08:26.905Z,58.90
2019-05-13T04:09:32.628Z,58.90
2019-05-13T04:10:33.444Z,58.70
2019-05-13T04:11:34.046Z,58.70
2019-05-13T04:12:35.054Z,59.00
2019-05-13T04:13:36.156Z,58.70
2019-05-13T04:14:37.181Z,58.90
2019-05-13T04:15:38.501Z,59.10
2019-05-13T04:16:42.630Z,58.70
2019-05-13T04:17:42.962Z,58.40
2019-05-13T04:18:44.205Z,58.30
2019-05-13T04:19:45.329Z,58.30
2019-05-13T04:20:46.341Z,58.30
2019-05-13T04:21:47.461Z,58.30
2019-05-13T04:22:48.483Z,58.20
2019-05-13T04:23:53.100Z,57.80
2019-05-13T04:24:53.279Z,58.40
2019-05-13T04:25:54.324Z,58.70
2019-05-13T04:26:55.363Z,58.40
2019-05-13T04:27:56.376Z,59.00
2019-05-13T04:28:57.491Z,58.30
2019-05-13T04:29:58.500Z,58.00
2019-05-13T04:31:03.005Z,58.00
2019-05-13T04:32:02.764Z,58.10
2019-05-13T04:33:04.067Z,58.10
2019-05-13T04:34:05.065Z,58.40
2019-05-13T04:35:06.291Z,58.40
2019-05-13T04:36:07.309Z,58.40
2019-05-13T04:37:08.326Z,58.40
2019-05-13T04:38:13.062Z,58.40
2019-05-13T04:39:13.041Z,58.10
2019-05-13T04:40:14.269Z,57.70
2019-05-13T04:41:15.273Z,59.10
2019-05-13T04:42:16.300Z,58.40
2019-05-13T04:43:17.413Z,58.40
2019-05-13T04:44:18.525Z,58.00
2019-05-13T04:45:19.543Z,57.70
2019-05-13T04:46:22.799Z,57.60
2019-05-13T04:47:23.692Z,57.30
2019-05-13T04:48:24.701Z,57.40
2019-05-13T04:49:25.738Z,56.70
2019-05-13T04:50:26.981Z,56.40
2019-05-13T04:51:28.032Z,56.40
2019-05-13T04:52:29.054Z,56.70
2019-05-13T04:53:33.033Z,57.30
2019-05-13T04:54:33.546Z,56.80
2019-05-13T04:55:34.898Z,56.30
2019-05-13T04:56:36.510Z,55.90
2019-05-13T04:57:37.528Z,55.80
2019-05-13T04:58:38.548Z,56.30
2019-05-13T04:59:44.373Z,56.20
2019-05-13T05:01:07.472Z,54.90
2019-05-13T05:02:36.586Z,55.30
2019-05-13T05:03:44.802Z,55.80
2019-05-13T05:04:52.595Z,55.60
2019-05-13T05:05:57.593Z,55.00
2019-05-13T05:07:12.697Z,55.20
2019-05-13T05:08:52.508Z,54.70
2019-05-13T05:10:30.564Z,54.50
2019-05-13T05:11:45.380Z,54.70
2019-05-13T05:12:56.264Z,54.70
2019-05-13T05:14:11.964Z,54.50
2019-05-13T05:15:28.612Z,54.40
2019-05-13T05:16:54.085Z,54.60
2019-05-13T05:18:04.598Z,54.40
2019-05-13T05:19:36.552Z,54.20
2019-05-13T05:20:41.687Z,54.80
2019-05-13T05:22:03.545Z,54.40
2019-05-13T05:23:33.071Z,53.70
2019-05-13T05:24:52.783Z,53.70
2019-05-13T05:26:15.334Z,53.70
2019-05-13T05:27:31.569Z,53.80
2019-05-13T05:28:44.936Z,53.80
2019-05-13T05:30:13.788Z,53.50
2019-05-13T05:31:27.661Z,53.40
2019-05-13T05:32:35.878Z,52.90
2019-05-13T05:33:45.339Z,52.60
2019-05-13T05:35:02.485Z,52.90
2019-05-13T05:36:13.650Z,51.90
2019-05-13T05:37:41.702Z,52.20
2019-05-13T05:39:01.780Z,51.90
2019-05-13T05:40:03.393Z,52.10
2019-05-13T05:41:06.005Z,51.90
2019-05-13T05:42:11.259Z,51.50
2019-05-13T05:43:14.435Z,51.60
2019-05-13T05:44:16.548Z,50.70
2019-05-13T05:45:17.801Z,51.00
2019-05-13T05:46:22.079Z,51.00
2019-05-13T05:47:25.635Z,51.30
2019-05-13T05:48:28.363Z,51.50
2019-05-13T05:49:31.796Z,50.70
2019-05-13T05:50:34.881Z,50.10
2019-05-13T05:51:37.902Z,49.90
2019-05-13T05:52:42.096Z,49.90
2019-05-13T05:53:45.760Z,49.80
2019-05-13T05:54:51.522Z,49.60
2019-05-13T05:55:55.055Z,48.40
2019-05-13T05:56:58.296Z,49.10
2019-05-13T05:58:01.662Z,48.00
2019-05-13T05:59:03.157Z,48.10
2019-05-13T06:00:06.465Z,47.40
2019-05-13T06:01:08.894Z,47.40
2019-05-13T06:02:12.140Z,47.00
2019-05-13T06:03:14.004Z,47.50
2019-05-13T06:04:15.370Z,46.80
2019-05-13T06:05:16.368Z,46.50
2019-05-13T06:06:22.565Z,45.80
2019-05-13T06:07:22.810Z,46.10
2019-05-13T06:08:23.818Z,46.50
2019-05-13T06:09:25.029Z,46.20
2019-05-13T06:10:26.032Z,45.80
2019-05-13T06:11:27.052Z,46.10
2019-05-13T06:12:28.757Z,45.60
2019-05-13T06:13:31.585Z,45.50
2019-05-13T06:14:33.023Z,45.00
2019-05-13T06:15:34.204Z,45.60
2019-05-13T06:16:35.235Z,45.00
2019-05-13T06:17:36.342Z,45.40
2019-05-13T06:18:37.361Z,44.40
2019-05-13T06:19:38.573Z,43.60
2019-05-13T06:20:41.678Z,44.60
2019-05-13T06:21:42.896Z,44.50
2019-05-13T06:22:44.023Z,44.50
2019-05-13T06:23:45.103Z,44.60
2019-05-13T06:24:46.118Z,44.70
2019-05-13T06:25:47.204Z,44.20
2019-05-13T06:26:48.224Z,45.00
2019-05-13T06:27:51.222Z,44.00
2019-05-13T06:28:52.350Z,44.20
2019-05-13T06:29:53.357Z,44.00
2019-05-13T06:30:54.360Z,43.70
2019-05-13T06:31:55.411Z,43.60
2019-05-13T06:32:56.520Z,43.60
2019-05-13T06:33:58.248Z,43.60
2019-05-13T06:35:01.784Z,43.60
2019-05-13T06:36:02.289Z,44.00
2019-05-13T06:37:03.284Z,43.60
2019-05-13T06:38:04.409Z,43.60
2019-05-13T06:39:09.386Z,43.90
2019-05-13T06:40:12.342Z,44.00
2019-05-13T06:41:14.721Z,43.50
2019-05-13T06:42:16.128Z,43.50
2019-05-13T06:43:17.141Z,43.60
2019-05-13T06:44:18.155Z,43.60
2019-05-13T06:45:21.450Z,43.80
2019-05-13T06:46:22.099Z,43.70
2019-05-13T06:47:23.111Z,44.00
2019-05-13T06:48:24.140Z,44.50
2019-05-13T06:49:25.174Z,43.60
2019-05-13T06:50:26.208Z,43.60
2019-05-13T06:51:27.227Z,43.70
2019-05-13T06:52:28.291Z,43.70
2019-05-13T06:53:29.379Z,44.60
2019-05-13T06:54:33.028Z,44.00
2019-05-13T06:55:34.031Z,44.00
2019-05-13T06:56:35.045Z,43.70
2019-05-13T06:57:36.056Z,43.60
2019-05-13T06:58:37.088Z,43.60
2019-05-13T06:59:38.100Z,43.60
2019-05-13T07:00:42.515Z,43.80
2019-05-13T07:01:42.768Z,44.20
2019-05-13T07:02:44.023Z,43.70
2019-05-13T07:03:45.047Z,43.60
2019-05-13T07:04:46.064Z,43.70
2019-05-13T07:05:47.081Z,43.70
2019-05-13T07:06:48.096Z,43.50
2019-05-13T07:07:51.233Z,43.60
2019-05-13T07:08:52.263Z,43.70
2019-05-13T07:09:53.352Z,43.50
2019-05-13T07:10:54.368Z,43.60
2019-05-13T07:11:56.986Z,43.50
2019-05-13T07:12:58.199Z,43.40
2019-05-13T07:13:59.219Z,43.60
2019-05-13T07:15:02.539Z,42.50
2019-05-13T07:16:03.162Z,43.00
2019-05-13T07:17:04.186Z,43.00
2019-05-13T07:18:05.196Z,43.30
2019-05-13T07:19:06.225Z,43.60
2019-05-13T07:20:07.751Z,43.50
2019-05-13T07:21:08.775Z,43.60
2019-05-13T07:22:11.553Z,43.60
2019-05-13T07:23:12.723Z,43.20
2019-05-13T07:24:13.736Z,43.40
2019-05-13T07:25:15.276Z,43.30
2019-05-13T07:26:16.298Z,43.70
2019-05-13T07:27:17.329Z,43.70
2019-05-13T07:28:18.323Z,43.80
2019-05-13T07:29:19.809Z,43.80
2019-05-13T07:30:36.960Z,42.90
2019-05-13T07:31:37.982Z,43.00
2019-05-13T07:32:41.876Z,43.20
2019-05-13T07:33:42.709Z,43.30
2019-05-13T07:34:44.347Z,42.50
2019-05-13T07:35:46.188Z,42.40
2019-05-13T07:36:47.870Z,43.10
2019-05-13T07:37:48.980Z,42.70
2019-05-13T07:38:52.079Z,43.00
2019-05-13T07:39:53.320Z,43.00
2019-05-13T07:41:02.452Z,42.90
2019-05-13T07:42:05.821Z,42.10
2019-05-13T07:43:06.484Z,42.00
2019-05-13T07:44:07.539Z,42.50
2019-05-13T07:45:08.845Z,42.50
2019-05-13T07:46:12.403Z,42.10
2019-05-13T07:47:15.683Z,42.00
2019-05-13T07:48:21.249Z,42.20
2019-05-13T07:49:18.603Z,41.80
2019-05-13T07:50:21.893Z,41.90
2019-05-13T07:51:22.532Z,41.30
2019-05-13T07:52:23.557Z,42.00
2019-05-13T07:53:24.668Z,41.70
2019-05-13T07:54:25.696Z,41.80
2019-05-13T07:55:26.765Z,41.60
2019-05-13T07:56:27.780Z,41.80
2019-05-13T07:57:28.888Z,41.70
2019-05-13T07:58:36.165Z,41.20
2019-05-13T07:59:32.920Z,41.30
2019-05-13T08:00:33.943Z,41.50
2019-05-13T08:01:34.952Z,41.50
2019-05-13T08:02:35.965Z,42.00
2019-05-13T08:03:37.007Z,42.00
2019-05-13T08:04:38.019Z,41.80
2019-05-13T08:05:39.051Z,41.90
2019-05-13T08:06:41.644Z,41.90
2019-05-13T08:07:42.875Z,41.60
2019-05-13T08:08:43.988Z,41.40
2019-05-13T08:09:45.223Z,41.20
2019-05-13T08:10:46.269Z,41.10
2019-05-13T08:12:04.285Z,41.40
2019-05-13T08:12:51.651Z,41.20
2019-05-13T08:13:52.826Z,41.00
2019-05-13T08:14:53.844Z,41.80
2019-05-13T08:15:54.943Z,41.50
2019-05-13T08:16:56.011Z,40.80
2019-05-13T08:17:57.022Z,41.30
2019-05-13T08:18:58.031Z,40.60
2019-05-13T08:19:59.057Z,40.90
2019-05-13T08:21:02.121Z,40.80
2019-05-13T08:22:03.072Z,41.00
2019-05-13T08:23:04.088Z,41.20
2019-05-13T08:24:05.102Z,41.30
2019-05-13T08:25:06.325Z,40.20
2019-05-13T08:26:07.332Z,40.20
2019-05-13T08:27:08.372Z,40.60
2019-05-13T08:28:12.261Z,40.50
2019-05-13T08:29:12.912Z,40.30
2019-05-13T08:30:17.902Z,40.90
2019-05-13T08:31:17.352Z,40.10
2019-05-13T08:32:18.559Z,40.50
2019-05-13T08:33:19.571Z,40.50
2019-05-13T08:34:22.609Z,40.40
2019-05-13T08:35:23.521Z,40.40
2019-05-13T08:36:24.528Z,40.00
2019-05-13T08:37:25.542Z,40.30
2019-05-13T08:38:26.551Z,40.40
2019-05-13T08:39:35.661Z,39.90
2019-05-13T08:40:31.687Z,40.10
2019-05-13T08:41:33.007Z,40.50
2019-05-13T08:42:34.024Z,39.80
2019-05-13T08:43:35.128Z,40.40
2019-05-13T08:44:36.142Z,39.80
2019-05-13T08:45:37.157Z,39.60
2019-05-13T08:46:38.451Z,39.20
2019-05-13T08:47:41.795Z,39.90
2019-05-13T08:48:42.966Z,40.00
2019-05-13T08:49:44.099Z,39.50
2019-05-13T08:50:45.127Z,39.80
2019-05-13T08:51:46.142Z,39.50
2019-05-13T08:52:47.149Z,39.30
2019-05-13T08:53:48.163Z,39.00
2019-05-13T08:54:49.174Z,38.80
2019-05-13T08:55:51.684Z,38.40
2019-05-13T08:56:53.037Z,38.60
2019-05-13T08:57:55.246Z,39.00
2019-05-13T08:58:56.465Z,39.00
2019-05-13T08:59:57.478Z,39.40
2019-05-13T09:00:59.292Z,38.90
2019-05-13T09:02:03.122Z,39.50
2019-05-13T09:03:06.338Z,39.70
2019-05-13T09:04:07.954Z,38.60
2019-05-13T09:05:12.052Z,38.20
2019-05-13T09:06:13.384Z,38.90
2019-05-13T09:07:14.400Z,38.10
2019-05-13T09:08:16.414Z,36.40
2019-05-13T09:09:17.715Z,36.40
2019-05-13T09:10:20.857Z,36.20
2019-05-13T09:11:22.232Z,35.50
2019-05-13T09:12:32.247Z,35.70
2019-05-13T09:13:26.388Z,36.20
2019-05-13T09:14:27.401Z,36.30
2019-05-13T09:15:28.416Z,36.40
2019-05-13T09:16:31.834Z,36.40
2019-05-13T09:17:32.343Z,36.50
2019-05-13T09:18:34.089Z,35.10
2019-05-13T09:19:35.128Z,35.30
2019-05-13T09:20:36.141Z,35.30
2019-05-13T09:21:37.208Z,34.80
2019-05-13T09:22:38.208Z,34.40
2019-05-13T09:23:41.310Z,34.80
2019-05-13T09:24:42.655Z,34.40
2019-05-13T09:25:43.957Z,34.10
2019-05-13T09:26:45.073Z,32.60
2019-05-13T09:27:46.287Z,33.30
2019-05-13T09:28:47.315Z,32.70
2019-05-13T09:29:48.356Z,31.80
2019-05-13T09:30:49.364Z,31.70
2019-05-13T09:31:51.987Z,31.60
2019-05-13T09:32:53.297Z,31.60
2019-05-13T09:33:54.304Z,32.60
2019-05-13T09:34:55.311Z,32.80
2019-05-13T09:35:56.327Z,33.00
2019-05-13T09:36:57.343Z,33.60
2019-05-13T09:37:58.359Z,32.70
2019-05-13T09:39:01.854Z,32.30
2019-05-13T09:40:03.784Z,33.70
2019-05-13T09:41:04.820Z,31.80
2019-05-13T09:42:06.161Z,31.60
2019-05-13T09:43:07.316Z,31.90
2019-05-13T09:44:08.395Z,30.20
2019-05-13T09:45:12.111Z,30.30
2019-05-13T09:46:12.636Z,31.10
2019-05-13T09:47:13.652Z,31.70
2019-05-13T09:48:14.671Z,31.30
2019-05-13T09:49:19.713Z,32.00
2019-05-13T09:50:28.669Z,32.30
2019-05-13T09:51:21.786Z,32.40
2019-05-13T09:52:22.840Z,32.60
2019-05-13T09:53:23.844Z,32.90
2019-05-13T09:54:24.864Z,32.50
2019-05-13T09:55:29.213Z,32.00
2019-05-13T09:56:28.812Z,33.30
2019-05-13T09:57:32.133Z,32.10
2019-05-13T09:58:33.235Z,32.10
2019-05-13T09:59:34.470Z,32.40
2019-05-13T10:00:35.476Z,32.70
2019-05-13T10:01:36.496Z,33.10
2019-05-13T10:02:37.562Z,33.10
2019-05-13T10:03:53.171Z,32.90
2019-05-13T10:04:43.700Z,32.20
2019-05-13T10:05:44.459Z,32.20
2019-05-13T10:06:45.489Z,32.20
2019-05-13T10:07:46.496Z,31.50
2019-05-13T10:08:47.608Z,31.30
2019-05-13T10:09:48.681Z,31.40
2019-05-13T10:10:52.307Z,31.30
2019-05-13T10:11:52.685Z,32.30
2019-05-13T10:13:08.160Z,32.40
2019-05-13T10:13:57.656Z,31.80
2019-05-13T10:14:58.668Z,31.10
2019-05-13T10:15:59.697Z,31.30
2019-05-13T10:17:05.403Z,31.30
2019-05-13T10:18:03.841Z,32.10
2019-05-13T10:19:04.959Z,32.30
2019-05-13T10:20:07.008Z,30.80
2019-05-13T10:21:08.015Z,31.40
2019-05-13T10:22:11.747Z,32.00
2019-05-13T10:23:13.022Z,31.90
2019-05-13T10:24:14.064Z,31.50
2019-05-13T10:25:17.184Z,30.90
2019-05-13T10:26:18.624Z,31.70
2019-05-13T10:27:22.404Z,32.90
2019-05-13T10:28:24.332Z,32.00
2019-05-13T10:29:25.537Z,31.80
2019-05-13T10:30:26.782Z,32.00
2019-05-13T10:31:27.853Z,32.00
2019-05-13T10:32:28.977Z,32.00
2019-05-13T10:33:31.922Z,32.10
2019-05-13T10:34:33.012Z,32.10
2019-05-13T10:35:34.144Z,31.90
2019-05-13T10:36:35.492Z,31.60
2019-05-13T10:37:36.696Z,31.60
2019-05-13T10:38:37.915Z,31.70
2019-05-13T10:39:38.936Z,31.50
2019-05-13T10:40:43.049Z,30.70
2019-05-13T10:41:42.868Z,30.70
2019-05-13T10:42:43.891Z,30.00
2019-05-13T10:43:44.978Z,30.40
2019-05-13T10:44:46.303Z,31.20
2019-05-13T10:45:47.532Z,31.40
2019-05-13T10:46:48.624Z,30.50
2019-05-13T10:47:51.936Z,29.80
2019-05-13T10:48:52.958Z,30.50
2019-05-13T10:49:54.097Z,30.50
2019-05-13T10:50:55.103Z,30.10
2019-05-13T10:51:56.144Z,29.00
2019-05-13T10:52:57.168Z,28.70
2019-05-13T10:53:59.550Z,29.30
2019-05-13T10:55:01.925Z,30.00
2019-05-13T10:56:03.644Z,30.00
2019-05-13T10:57:04.823Z,29.80
2019-05-13T10:58:06.548Z,29.70
2019-05-13T10:59:07.570Z,29.70
2019-05-13T11:00:11.982Z,29.80
2019-05-13T11:01:12.390Z,29.80
2019-05-13T11:02:13.635Z,29.50
2019-05-13T11:03:14.829Z,30.10
2019-05-13T11:04:15.842Z,29.80
2019-05-13T11:05:17.255Z,30.20
2019-05-13T11:06:18.264Z,30.40
2019-05-13T11:07:19.385Z,31.00
2019-05-13T11:08:22.318Z,28.90
2019-05-13T11:09:23.620Z,28.70
2019-05-13T11:10:32.137Z,28.70
2019-05-13T11:11:33.217Z,28.70
2019-05-13T11:12:34.400Z,28.90
2019-05-13T11:13:52.250Z,28.70
2019-05-13T11:14:38.324Z,29.10
2019-05-13T11:15:43.027Z,29.50
2019-05-13T11:16:42.923Z,29.50
2019-05-13T11:17:43.997Z,28.70
2019-05-13T11:18:45.015Z,28.70
2019-05-13T11:19:46.013Z,29.50
2019-05-13T11:20:47.021Z,29.70
2019-05-13T11:21:50.828Z,29.30
2019-05-13T11:22:52.139Z,29.70
2019-05-13T11:23:53.359Z,29.00
2019-05-13T11:24:54.711Z,29.00
2019-05-13T11:25:55.716Z,29.00
2019-05-13T11:26:56.849Z,28.60
2019-05-13T11:27:58.542Z,29.20
2019-05-13T11:29:00.256Z,27.60
2019-05-13T11:30:06.030Z,28.20
2019-05-13T11:31:07.252Z,28.50
2019-05-13T11:32:08.315Z,28.60
2019-05-13T11:33:10.173Z,29.10
2019-05-13T11:34:11.456Z,28.40
2019-05-13T11:35:13.211Z,27.70
2019-05-13T11:36:18.931Z,26.50
2019-05-13T11:37:17.232Z,27.30
2019-05-13T11:38:18.265Z,27.70
2019-05-13T11:39:21.628Z,28.10
2019-05-13T11:40:22.577Z,27.80
2019-05-13T11:41:23.713Z,28.70
2019-05-13T11:42:24.980Z,28.30
2019-05-13T11:43:28.053Z,27.80
2019-05-13T11:44:31.974Z,27.80
2019-05-13T11:45:32.060Z,27.60
2019-05-13T11:46:33.468Z,27.20
2019-05-13T11:47:34.680Z,27.20
2019-05-13T11:48:35.692Z,27.60
2019-05-13T11:49:36.715Z,27.90
2019-05-13T11:50:37.720Z,27.60
2019-05-13T11:51:38.732Z,27.80
2019-05-13T11:52:42.508Z,27.20
2019-05-13T11:53:42.996Z,27.70
2019-05-13T11:54:44.009Z,27.20
2019-05-13T11:55:45.019Z,27.60
2019-05-13T11:56:49.715Z,27.70
2019-05-13T11:57:48.960Z,27.40
2019-05-13T11:58:53.232Z,27.70
2019-05-13T11:59:53.035Z,27.70
2019-05-13T12:00:57.030Z,27.00
2019-05-13T12:01:58.116Z,27.50
2019-05-13T12:02:59.334Z,27.60
2019-05-13T12:04:02.787Z,27.80
2019-05-13T12:05:07.189Z,27.50
2019-05-13T12:06:08.297Z,26.60
2019-05-13T12:07:09.305Z,26.70
2019-05-13T12:08:12.677Z,27.10
2019-05-13T12:09:13.518Z,26.40
2019-05-13T12:10:14.712Z,27.00
2019-05-13T12:11:16.063Z,27.20
2019-05-13T12:12:17.068Z,24.90
2019-05-13T12:13:18.379Z,26.10
2019-05-13T12:14:42.917Z,26.20
2019-05-13T12:15:35.550Z,25.90
2019-05-13T12:16:25.930Z,26.70
2019-05-13T12:17:26.948Z,26.20
2019-05-13T12:18:27.975Z,25.90
2019-05-13T12:19:29.000Z,26.30
2019-05-13T12:20:32.824Z,25.70
2019-05-13T12:21:32.924Z,25.90
2019-05-13T12:22:33.933Z,26.20
2019-05-13T12:23:35.348Z,26.10
2019-05-13T12:24:36.386Z,26.20
2019-05-13T12:25:37.481Z,26.30
2019-05-13T12:26:38.496Z,25.80
2019-05-13T12:27:41.371Z,26.40
2019-05-13T12:28:42.459Z,26.40
2019-05-13T12:29:43.543Z,26.30
2019-05-13T12:30:44.561Z,26.40
2019-05-13T12:31:45.576Z,26.50
2019-05-13T12:32:46.887Z,27.00
2019-05-13T12:33:47.892Z,25.70
2019-05-13T12:34:48.918Z,25.00
2019-05-13T12:35:52.988Z,25.20
2019-05-13T12:36:52.857Z,25.30
2019-05-13T12:37:53.860Z,24.50
2019-05-13T12:38:54.873Z,25.20
2019-05-13T12:39:55.892Z,25.30
2019-05-13T12:40:56.948Z,25.00
2019-05-13T12:41:58.224Z,25.60
2019-05-13T12:43:01.950Z,25.50
2019-05-13T12:44:02.144Z,25.60
2019-05-13T12:45:09.714Z,25.80
2019-05-13T12:46:07.457Z,25.10
2019-05-13T12:47:11.357Z,25.10
2019-05-13T12:48:13.926Z,25.60
2019-05-13T12:49:14.738Z,25.80
2019-05-13T12:50:17.764Z,25.90
2019-05-13T12:51:18.776Z,25.60
2019-05-13T12:52:22.926Z,23.90
2019-05-13T12:53:23.310Z,24.60
2019-05-13T12:54:24.334Z,24.80
2019-05-13T12:55:25.359Z,24.60
2019-05-13T12:56:26.389Z,24.80
2019-05-13T12:57:27.479Z,24.80
2019-05-13T12:58:28.491Z,23.90
2019-05-13T12:59:31.559Z,24.00
2019-05-13T13:00:33.126Z,24.50
2019-05-13T13:01:34.563Z,24.10
2019-05-13T13:02:35.595Z,24.40
2019-05-13T13:03:36.596Z,24.60
2019-05-13T13:04:37.620Z,23.60
2019-05-13T13:05:38.637Z,24.20
2019-05-13T13:06:44.140Z,23.50
2019-05-13T13:07:42.679Z,23.70
2019-05-13T13:08:49.257Z,23.70
2019-05-13T13:09:47.703Z,23.10
2019-05-13T13:10:49.454Z,22.70
2019-05-13T13:11:54.370Z,22.80
2019-05-13T13:12:55.079Z,22.00
2019-05-13T13:14:00.140Z,22.90
2019-05-13T13:14:59.193Z,22.80
2019-05-13T13:16:04.630Z,23.70
2019-05-13T13:17:04.173Z,23.50
2019-05-13T13:18:05.732Z,22.90
2019-05-13T13:19:06.739Z,22.90
2019-05-13T13:20:09.710Z,22.90
2019-05-13T13:21:14.449Z,23.10
2019-05-13T13:22:14.303Z,22.90